createdAt,value
2023-08-14T00:01:04.722Z,100559.28
2023-08-14T00:03:32.442Z,100566.47
2023-08-14T00:05:59.670Z,100565.44
2023-08-14T00:08:26.823Z,100561.13
2023-08-14T00:10:53.691Z,100563.97
2023-08-14T00:13:22.018Z,100565.81
2023-08-14T00:15:49.929Z,100571.16
2023-08-14T00:18:17.601Z,100571.94
2023-08-14T00:20:47.292Z,100569.47
2023-08-14T00:23:14.305Z,100573.19
2023-08-14T00:25:41.176Z,100577.06
2023-08-14T00:28:08.546Z,100578.47
2023-08-14T00:30:35.455Z,100590.50
2023-08-14T00:33:02.463Z,100590.72
2023-08-14T00:35:29.428Z,100588.88
2023-08-14T00:37:56.339Z,100583.56
2023-08-14T00:40:23.306Z,100579.44
2023-08-14T00:42:50.256Z,100576.13
2023-08-14T00:45:17.575Z,100579.00
2023-08-14T00:47:47.087Z,100580.63
2023-08-14T00:50:14.698Z,100575.72
2023-08-14T00:52:45.190Z,100568.53
2023-08-14T00:55:18.424Z,100565.88
2023-08-14T00:57:45.796Z,100561.56
2023-08-14T01:00:13.557Z,100561.78
2023-08-14T01:02:43.160Z,100561.78
2023-08-14T01:05:10.579Z,100555.00
2023-08-14T01:07:38.241Z,100555.81
2023-08-14T01:10:09.137Z,100565.44
2023-08-14T01:13:08.792Z,100558.28
2023-08-14T01:15:51.508Z,100561.94
2023-08-14T01:18:20.484Z,100562.16
2023-08-14T01:21:12.996Z,100575.47
2023-08-14T01:24:13.861Z,100579.97
2023-08-14T01:26:41.255Z,100573.84
2023-08-14T01:29:08.088Z,100565.22
2023-08-14T01:31:34.973Z,100567.22
2023-08-14T01:34:02.029Z,100564.41
2023-08-14T01:36:42.886Z,100555.78
2023-08-14T01:39:17.664Z,100545.13
2023-08-14T01:42:02.840Z,100545.31
2023-08-14T01:44:32.742Z,100543.47
2023-08-14T01:47:01.549Z,100551.25
2023-08-14T01:49:31.426Z,100554.75
2023-08-14T01:51:59.198Z,100555.56
2023-08-14T01:54:26.272Z,100555.38
2023-08-14T01:56:53.203Z,100550.47
2023-08-14T01:59:30.765Z,100540.44
2023-08-14T02:01:57.693Z,100536.72
2023-08-14T02:04:25.264Z,100545.56
2023-08-14T02:06:52.157Z,100567.69
2023-08-14T02:09:19.032Z,100569.28
2023-08-14T02:11:45.868Z,100568.41
2023-08-14T02:14:12.772Z,100558.53
2023-08-14T02:16:39.645Z,100561.94
2023-08-14T02:19:06.541Z,100549.41
2023-08-14T02:21:33.414Z,100550.19
2023-08-14T02:24:00.284Z,100540.69
2023-08-14T02:26:27.154Z,100527.09
2023-08-14T02:28:55.084Z,100525.38
2023-08-14T02:31:22.068Z,100515.31
2023-08-14T02:33:49.012Z,100517.53
2023-08-14T02:36:15.977Z,100513.06
2023-08-14T02:38:42.871Z,100512.78
2023-08-14T02:41:09.881Z,100505.78
2023-08-14T02:43:36.811Z,100496.53
2023-08-14T02:46:03.803Z,100501.03
2023-08-14T02:48:30.748Z,100503.88
2023-08-14T02:50:57.626Z,100506.16
2023-08-14T02:53:24.498Z,100501.66
2023-08-14T02:55:54.469Z,100490.81
2023-08-14T02:58:21.472Z,100497.19
2023-08-14T03:00:49.174Z,100493.88
2023-08-14T03:03:16.787Z,100486.72
2023-08-14T03:05:45.486Z,100479.56
2023-08-14T03:08:12.369Z,100479.56
2023-08-14T03:10:39.257Z,100475.59
2023-08-14T03:13:06.520Z,100472.13
2023-08-14T03:15:33.366Z,100474.78
2023-08-14T03:18:00.313Z,100475.59
2023-08-14T03:20:27.226Z,100483.97
2023-08-14T03:22:54.106Z,100481.13
2023-08-14T03:25:21.508Z,100474.34
2023-08-14T03:27:48.384Z,100483.31
2023-08-14T03:30:15.297Z,100464.91
2023-08-14T03:32:42.225Z,100470.81
2023-08-14T03:35:09.482Z,100476.31
2023-08-14T03:37:36.376Z,100472.19
2023-08-14T03:40:04.039Z,100480.16
2023-08-14T03:42:30.889Z,100472.59
2023-08-14T03:44:57.737Z,100467.28
2023-08-14T03:47:24.621Z,100469.28
2023-08-14T03:49:51.489Z,100468.66
2023-08-14T03:52:18.874Z,100461.06
2023-08-14T03:54:46.247Z,100471.06
2023-08-14T03:57:13.131Z,100479.03
2023-08-14T03:59:40.033Z,100468.41
2023-08-14T04:02:06.994Z,100478.41
2023-08-14T04:04:33.980Z,100478.78
2023-08-14T04:07:00.882Z,100484.47
2023-08-14T04:09:28.312Z,100483.19
2023-08-14T04:11:55.238Z,100493.19
2023-08-14T04:14:22.138Z,100497.63
2023-08-14T04:16:49.149Z,100492.66
2023-08-14T04:19:18.464Z,100502.22
2023-08-14T04:21:45.621Z,100493.97
2023-08-14T04:24:12.853Z,100496.63
2023-08-14T04:26:40.669Z,100495.81
2023-08-14T04:29:09.312Z,100502.78
2023-08-14T04:31:38.125Z,100503.78
2023-08-14T04:34:06.240Z,100507.72
2023-08-14T04:36:35.030Z,100504.59
2023-08-14T04:39:04.670Z,100515.44
2023-08-14T04:41:31.879Z,100521.56
2023-08-14T04:43:58.752Z,100517.06
2023-08-14T04:46:48.926Z,100519.34
2023-08-14T04:49:20.961Z,100525.66
2023-08-14T04:51:47.988Z,100526.88
2023-08-14T04:54:14.887Z,100516.44
2023-08-14T04:56:41.759Z,100518.09
2023-08-14T04:59:08.645Z,100513.59
2023-08-14T05:01:35.566Z,100518.72
2023-08-14T05:04:02.486Z,100530.06
2023-08-14T05:06:29.429Z,100524.84
2023-08-14T05:08:56.296Z,100509.59
2023-08-14T05:11:23.260Z,100504.78
2023-08-14T05:13:50.169Z,100496.69
2023-08-14T05:16:17.104Z,100503.34
2023-08-14T05:18:44.009Z,100498.19
2023-08-14T05:21:10.878Z,100489.31
2023-08-14T05:23:37.745Z,100485.53
2023-08-14T05:26:04.692Z,100483.41
2023-08-14T05:28:31.761Z,100476.56
2023-08-14T05:30:58.768Z,100482.06
2023-08-14T05:33:25.663Z,100480.50
2023-08-14T05:35:52.567Z,100492.47
2023-08-14T05:38:19.443Z,100499.53
2023-08-14T05:40:46.407Z,100495.31
2023-08-14T05:43:14.911Z,100494.34
2023-08-14T05:45:47.033Z,100494.50
2023-08-14T05:48:15.518Z,100484.00
2023-08-14T05:50:42.860Z,100483.38
2023-08-14T05:53:10.249Z,100476.63
2023-08-14T05:55:39.280Z,100482.94
2023-08-14T05:58:07.406Z,100483.69
2023-08-14T06:00:36.102Z,100485.34
2023-08-14T06:03:03.807Z,100504.09
2023-08-14T06:05:30.920Z,100505.47
2023-08-14T06:07:58.767Z,100509.72
2023-08-14T06:10:25.983Z,100498.94
2023-08-14T06:12:53.086Z,100484.59
2023-08-14T06:15:21.061Z,100467.16
2023-08-14T06:17:49.537Z,100470.84
2023-08-14T06:20:16.874Z,100471.88
2023-08-14T06:22:47.191Z,100479.84
2023-08-14T06:25:16.399Z,100477.16
2023-08-14T06:27:43.335Z,100478.94
2023-08-14T06:30:12.018Z,100484.81
2023-08-14T06:32:40.067Z,100474.25
2023-08-14T06:35:07.886Z,100464.63
2023-08-14T06:37:35.741Z,100463.22
2023-08-14T06:40:04.875Z,100457.16
2023-08-14T06:42:32.001Z,100459.81
2023-08-14T06:44:59.212Z,100464.72
2023-08-14T06:47:26.267Z,100470.25
2023-08-14T06:49:53.185Z,100481.94
2023-08-14T06:52:20.508Z,100475.19
2023-08-14T06:54:47.682Z,100479.22
2023-08-14T06:57:14.926Z,100478.66
2023-08-14T06:59:42.198Z,100475.84
2023-08-14T07:02:09.905Z,100482.00
2023-08-14T07:04:36.870Z,100481.44
2023-08-14T07:07:03.782Z,100488.50
2023-08-14T07:09:30.654Z,100471.69
2023-08-14T07:11:57.520Z,100480.09
2023-08-14T07:14:24.396Z,100480.59
2023-08-14T07:16:51.298Z,100494.78
2023-08-14T07:19:18.833Z,100494.44
2023-08-14T07:21:46.290Z,100492.44
2023-08-14T07:24:13.701Z,100484.97
2023-08-14T07:26:42.138Z,100484.06
2023-08-14T07:29:09.610Z,100480.94
2023-08-14T07:31:36.546Z,100487.25
2023-08-14T07:34:03.407Z,100489.81
2023-08-14T07:36:30.266Z,100482.41
2023-08-14T07:38:57.126Z,100485.47
2023-08-14T07:41:24.011Z,100514.94
2023-08-14T07:43:50.927Z,100512.34
2023-08-14T07:46:19.372Z,100508.59
2023-08-14T07:48:46.574Z,100509.44
2023-08-14T07:51:13.503Z,100511.09
2023-08-14T07:53:40.421Z,100505.06
2023-08-14T07:56:07.348Z,100504.81
2023-08-14T07:58:34.250Z,100494.47
2023-08-14T08:01:01.209Z,100497.28
2023-08-14T08:03:28.131Z,100498.97
2023-08-14T08:05:55.115Z,100501.97
2023-08-14T08:08:22.132Z,100507.16
2023-08-14T08:10:49.056Z,100507.88
2023-08-14T08:13:15.991Z,100505.69
2023-08-14T08:15:42.951Z,100505.25
2023-08-14T08:18:10.062Z,100513.16
2023-08-14T08:20:37.305Z,100520.72
2023-08-14T08:23:05.127Z,100511.66
2023-08-14T08:25:32.129Z,100502.38
2023-08-14T08:27:59.350Z,100499.50
2023-08-14T08:30:26.304Z,100504.16
2023-08-14T08:32:53.292Z,100508.72
2023-08-14T08:35:20.301Z,100499.53
2023-08-14T08:37:50.013Z,100504.22
2023-08-14T08:40:17.033Z,100518.69
2023-08-14T08:42:43.995Z,100510.09
2023-08-14T08:45:13.093Z,100495.91
2023-08-14T08:47:41.731Z,100493.34
2023-08-14T08:50:10.282Z,100490.91
2023-08-14T08:52:38.146Z,100493.97
2023-08-14T08:55:14.286Z,100508.34
2023-08-14T08:57:45.034Z,100494.16
2023-08-14T09:00:12.994Z,100504.81
2023-08-14T09:02:47.713Z,100498.56
2023-08-14T09:05:15.290Z,100498.81
2023-08-14T09:07:42.181Z,100501.50
2023-08-14T09:10:09.597Z,100500.94
2023-08-14T09:12:36.720Z,100505.00
2023-08-14T09:15:09.116Z,100502.13
2023-08-14T09:17:36.078Z,100498.38
2023-08-14T09:20:12.286Z,100496.22
2023-08-14T09:22:42.766Z,100491.88
2023-08-14T09:25:09.677Z,100504.75
2023-08-14T09:27:36.907Z,100497.56
2023-08-14T09:30:07.878Z,100493.91
2023-08-14T09:32:34.883Z,100496.53
2023-08-14T09:35:03.806Z,100496.59
2023-08-14T09:37:31.058Z,100486.97
2023-08-14T09:40:16.759Z,100487.44
2023-08-14T09:42:48.521Z,100478.09
2023-08-14T09:45:20.272Z,100480.50
2023-08-14T09:47:49.818Z,100485.63
2023-08-14T09:50:21.129Z,100485.88
2023-08-14T09:52:48.356Z,100487.44
2023-08-14T09:55:15.890Z,100492.66
2023-08-14T09:57:43.263Z,100498.19
2023-08-14T10:00:13.571Z,100495.34
2023-08-14T10:02:44.715Z,100500.38
2023-08-14T10:05:12.055Z,100491.88
2023-08-14T10:07:40.870Z,100491.75
2023-08-14T10:10:12.264Z,100487.53
2023-08-14T10:12:52.107Z,100477.78
2023-08-14T10:15:27.296Z,100479.47
2023-08-14T10:18:05.744Z,100487.06
2023-08-14T10:20:35.693Z,100488.66
2023-08-14T10:23:03.851Z,100484.72
2023-08-14T10:25:31.551Z,100482.34
2023-08-14T10:27:58.936Z,100486.44
2023-08-14T10:30:26.550Z,100476.34
2023-08-14T10:32:54.714Z,100480.44
2023-08-14T10:35:22.656Z,100474.88
2023-08-14T10:38:04.434Z,100480.56
2023-08-14T10:40:37.180Z,100488.47
2023-08-14T10:43:06.759Z,100491.44
2023-08-14T10:45:34.614Z,100493.13
2023-08-14T10:48:10.465Z,100498.75
2023-08-14T10:50:37.498Z,100506.47
2023-08-14T10:53:06.987Z,100508.22
2023-08-14T10:55:42.867Z,100514.81
2023-08-14T10:58:34.728Z,100509.97
2023-08-14T11:01:04.220Z,100514.16
2023-08-14T11:03:34.836Z,100512.75
2023-08-14T11:06:02.194Z,100515.34
2023-08-14T11:08:31.221Z,100515.91
2023-08-14T11:10:59.465Z,100511.63
2023-08-14T11:13:32.998Z,100505.91
2023-08-14T11:16:00.169Z,100509.59
2023-08-14T11:18:28.749Z,100507.06
2023-08-14T11:21:10.436Z,100500.31
2023-08-14T11:23:41.500Z,100505.72
2023-08-14T11:26:11.163Z,100492.72
2023-08-14T11:28:38.041Z,100491.06
2023-08-14T11:31:05.429Z,100496.22
2023-08-14T11:33:32.951Z,100490.59
2023-08-14T11:36:04.213Z,100489.84
2023-08-14T11:38:38.372Z,100485.09
2023-08-14T11:41:05.296Z,100469.47
2023-08-14T11:43:32.196Z,100474.53
2023-08-14T11:45:59.306Z,100473.25
2023-08-14T11:48:26.929Z,100464.69
2023-08-14T11:50:54.497Z,100460.00
2023-08-14T11:53:22.141Z,100453.47
2023-08-14T11:55:49.451Z,100453.97
2023-08-14T11:58:16.402Z,100440.34
2023-08-14T12:00:43.749Z,100446.50
2023-08-14T12:03:13.343Z,100440.78
2023-08-14T12:05:40.398Z,100438.31
2023-08-14T12:08:10.177Z,100437.00
2023-08-14T12:10:37.075Z,100431.16
2023-08-14T12:13:04.229Z,100436.84
2023-08-14T12:15:32.386Z,100442.53
2023-08-14T12:17:59.860Z,100431.28
2023-08-14T12:20:32.077Z,100438.31
2023-08-14T12:23:15.282Z,100461.00
2023-08-14T12:25:42.292Z,100456.09
2023-08-14T12:28:09.208Z,100462.31
2023-08-14T12:30:36.601Z,100466.38
2023-08-14T12:33:03.764Z,100470.22
2023-08-14T12:35:31.729Z,100478.34
2023-08-14T12:37:59.942Z,100476.81
2023-08-14T12:40:28.494Z,100485.47
2023-08-14T12:42:55.430Z,100484.81
2023-08-14T12:45:22.332Z,100483.44
2023-08-14T12:47:49.280Z,100480.59
2023-08-14T12:50:16.324Z,100482.47
2023-08-14T12:52:45.176Z,100483.38
2023-08-14T12:55:18.867Z,100489.13
2023-08-14T12:57:47.851Z,100486.16
2023-08-14T13:00:16.261Z,100477.56
2023-08-14T13:02:43.201Z,100470.56
2023-08-14T13:05:10.225Z,100462.47
2023-08-14T13:07:37.120Z,100463.13
2023-08-14T13:10:04.729Z,100459.69
2023-08-14T13:12:31.729Z,100454.31
2023-08-14T13:14:58.676Z,100454.31
2023-08-14T13:17:25.651Z,100453.31
2023-08-14T13:19:56.257Z,100444.97
2023-08-14T13:22:25.437Z,100439.88
2023-08-14T13:24:52.402Z,100431.66
2023-08-14T13:27:19.589Z,100418.44
2023-08-14T13:29:46.739Z,100408.16
2023-08-14T13:32:13.599Z,100401.56
2023-08-14T13:34:40.498Z,100402.38
2023-08-14T13:37:08.028Z,100406.63
2023-08-14T13:39:35.070Z,100400.94
2023-08-14T13:42:01.941Z,100404.03
2023-08-14T13:44:31.584Z,100399.72
2023-08-14T13:46:58.787Z,100387.44
2023-08-14T13:49:26.511Z,100386.47
2023-08-14T13:51:53.367Z,100387.41
2023-08-14T13:54:20.281Z,100392.13
2023-08-14T13:56:47.148Z,100368.38
2023-08-14T13:59:14.086Z,100354.09
2023-08-14T14:01:41.110Z,100343.84
2023-08-14T14:04:08.840Z,100361.56
2023-08-14T14:06:35.817Z,100351.34
2023-08-14T14:09:03.380Z,100356.38
2023-08-14T14:11:30.300Z,100364.72
2023-08-14T14:13:59.879Z,100363.88
2023-08-14T14:16:57.017Z,100374.47
2023-08-14T14:19:25.376Z,100380.34
2023-08-14T14:21:53.675Z,100394.03
2023-08-14T14:24:20.640Z,100398.13
2023-08-14T14:26:47.676Z,100392.59
2023-08-14T14:29:14.746Z,100390.94
2023-08-14T14:31:44.680Z,100384.00
2023-08-14T14:34:11.645Z,100388.59
2023-08-14T14:36:38.553Z,100381.91
2023-08-14T14:39:05.994Z,100378.16
2023-08-14T14:41:32.889Z,100379.00
2023-08-14T14:44:02.521Z,100369.38
2023-08-14T14:46:29.471Z,100368.13
2023-08-14T14:48:56.356Z,100372.88
2023-08-14T14:51:24.130Z,100367.00
2023-08-14T14:53:51.108Z,100368.06
2023-08-14T14:56:18.303Z,100366.69
2023-08-14T14:58:45.478Z,100365.22
2023-08-14T15:01:15.219Z,100368.63
2023-08-14T15:03:42.701Z,100368.78
2023-08-14T15:06:12.387Z,100367.31
2023-08-14T15:08:43.394Z,100371.22
2023-08-14T15:11:10.666Z,100374.63
2023-08-14T15:13:37.970Z,100377.22
2023-08-14T15:16:04.965Z,100373.03
2023-08-14T15:18:31.906Z,100377.72
2023-08-14T15:20:58.848Z,100374.59
2023-08-14T15:23:25.726Z,100371.25
2023-08-14T15:25:52.626Z,100374.66
2023-08-14T15:28:19.578Z,100371.53
2023-08-14T15:30:46.533Z,100365.47
2023-08-14T15:33:13.380Z,100364.56
2023-08-14T15:35:40.766Z,100361.16
2023-08-14T15:38:07.672Z,100351.38
2023-08-14T15:40:34.603Z,100350.78
2023-08-14T15:43:01.526Z,100357.78
2023-08-14T15:45:28.462Z,100362.59
2023-08-14T15:48:01.038Z,100357.16
2023-08-14T15:50:27.904Z,100359.00
2023-08-14T15:52:54.896Z,100359.69
2023-08-14T15:55:21.868Z,100354.63
2023-08-14T15:57:51.794Z,100354.16
2023-08-14T16:00:19.773Z,100353.44
2023-08-14T16:02:49.815Z,100347.00
2023-08-14T16:05:16.756Z,100348.53
2023-08-14T16:07:43.677Z,100354.38
2023-08-14T16:10:10.632Z,100344.72
2023-08-14T16:12:37.538Z,100343.56
2023-08-14T16:15:05.217Z,100343.72
2023-08-14T16:17:32.122Z,100341.41
2023-08-14T16:20:01.005Z,100342.69
2023-08-14T16:22:27.911Z,100344.09
2023-08-14T16:24:54.832Z,100336.81
2023-08-14T16:27:21.981Z,100349.22
2023-08-14T16:29:49.143Z,100349.22
2023-08-14T16:32:16.052Z,100337.66
2023-08-14T16:34:43.016Z,100341.72
2023-08-14T16:37:09.868Z,100349.78
2023-08-14T16:39:36.807Z,100347.09
2023-08-14T16:42:04.002Z,100344.41
2023-08-14T16:44:30.968Z,100347.56
2023-08-14T16:46:57.903Z,100343.41
2023-08-14T16:49:24.773Z,100345.75
2023-08-14T16:51:51.776Z,100351.59
2023-08-14T16:54:18.711Z,100342.59
2023-08-14T16:56:45.655Z,100349.50
2023-08-14T16:59:12.881Z,100344.34
2023-08-14T17:01:39.826Z,100344.59
2023-08-14T17:04:06.944Z,100342.16
2023-08-14T17:06:34.253Z,100343.19
2023-08-14T17:09:02.662Z,100339.69
2023-08-14T17:11:29.574Z,100342.38
2023-08-14T17:13:56.547Z,100334.31
2023-08-14T17:16:23.542Z,100334.81
2023-08-14T17:18:50.414Z,100335.63
2023-08-14T17:21:17.272Z,100331.53
2023-08-14T17:23:44.177Z,100332.50
2023-08-14T17:26:11.036Z,100335.78
2023-08-14T17:28:38.038Z,100335.78
2023-08-14T17:31:04.923Z,100328.28
2023-08-14T17:33:31.832Z,100335.66
2023-08-14T17:35:59.193Z,100333.28
2023-08-14T17:38:26.115Z,100333.66
2023-08-14T17:40:53.025Z,100330.06
2023-08-14T17:43:20.608Z,100332.38
2023-08-14T17:45:51.069Z,100322.72
2023-08-14T17:48:18.085Z,100337.41
2023-08-14T17:50:53.391Z,100335.31
2023-08-14T17:53:21.144Z,100333.91
2023-08-14T17:55:48.138Z,100338.13
2023-08-14T17:58:15.121Z,100348.28
2023-08-14T18:00:50.963Z,100339.06
2023-08-14T18:03:18.061Z,100346.16
2023-08-14T18:05:52.380Z,100351.16
2023-08-14T18:08:19.913Z,100355.13
2023-08-14T18:10:47.185Z,100357.81
2023-08-14T18:13:14.089Z,100350.00
2023-08-14T18:15:41.257Z,100358.28
2023-08-14T18:18:08.221Z,100357.72
2023-08-14T18:20:35.339Z,100349.28
2023-08-14T18:23:02.993Z,100353.63
2023-08-14T18:25:29.964Z,100356.75
2023-08-14T18:27:56.969Z,100357.25
2023-08-14T18:30:24.029Z,100360.63
2023-08-14T18:32:50.981Z,100364.81
2023-08-14T18:35:18.033Z,100363.66
2023-08-14T18:37:44.920Z,100373.22
2023-08-14T18:40:11.866Z,100364.19
2023-08-14T18:42:38.811Z,100357.66
2023-08-14T18:45:06.580Z,100360.44
2023-08-14T18:47:33.748Z,100360.09
2023-08-14T18:50:00.736Z,100361.38
2023-08-14T18:52:28.834Z,100366.13
2023-08-14T18:54:55.658Z,100371.13
2023-08-14T18:57:22.649Z,100376.94
2023-08-14T18:59:49.542Z,100371.22
2023-08-14T19:02:16.492Z,100381.38
2023-08-14T19:04:44.099Z,100372.94
2023-08-14T19:07:12.647Z,100375.03
2023-08-14T19:09:39.525Z,100376.53
2023-08-14T19:12:08.298Z,100377.81
2023-08-14T19:14:36.064Z,100382.81
2023-08-14T19:17:04.378Z,100384.31
2023-08-14T19:19:31.302Z,100381.06
2023-08-14T19:21:58.654Z,100386.84
2023-08-14T19:24:25.653Z,100389.75
2023-08-14T19:26:52.553Z,100384.75
2023-08-14T19:29:19.739Z,100386.84
2023-08-14T19:31:46.612Z,100387.53
2023-08-14T19:34:13.564Z,100393.56
2023-08-14T19:36:40.488Z,100387.00
2023-08-14T19:39:07.503Z,100379.28
2023-08-14T19:41:34.374Z,100390.44
2023-08-14T19:44:04.821Z,100384.69
2023-08-14T19:46:32.240Z,100383.28
2023-08-14T19:48:59.165Z,100381.91
2023-08-14T19:51:26.114Z,100384.78
2023-08-14T19:53:53.104Z,100386.63
2023-08-14T19:56:20.732Z,100386.88
2023-08-14T19:58:47.677Z,100387.91
2023-08-14T20:01:14.709Z,100381.75
2023-08-14T20:03:44.117Z,100382.75
2023-08-14T20:06:14.321Z,100383.47
2023-08-14T20:08:41.214Z,100380.16
2023-08-14T20:11:08.106Z,100381.47
2023-08-14T20:13:35.001Z,100387.00
2023-08-14T20:16:02.125Z,100384.22
2023-08-14T20:18:30.298Z,100388.13
2023-08-14T20:20:57.309Z,100380.53
2023-08-14T20:23:24.304Z,100384.47
2023-08-14T20:25:52.455Z,100384.94
2023-08-14T20:28:19.699Z,100390.72
2023-08-14T20:30:46.659Z,100394.69
2023-08-14T20:33:15.424Z,100395.13
2023-08-14T20:35:47.681Z,100396.38
2023-08-14T20:38:15.137Z,100389.41
2023-08-14T20:40:42.082Z,100400.75
2023-08-14T20:43:13.797Z,100396.44
2023-08-14T20:45:41.371Z,100398.28
2023-08-14T20:48:09.003Z,100405.91
2023-08-14T20:50:37.077Z,100405.31
2023-08-14T20:53:04.910Z,100407.03
2023-08-14T20:55:32.060Z,100407.22
2023-08-14T20:57:59.029Z,100412.22
2023-08-14T21:00:25.947Z,100415.91
2023-08-14T21:02:52.969Z,100416.13
2023-08-14T21:05:19.978Z,100417.84
2023-08-14T21:07:46.858Z,100417.03
2023-08-14T21:10:13.842Z,100406.75
2023-08-14T21:12:40.714Z,100413.97
2023-08-14T21:15:08.123Z,100414.41
2023-08-14T21:17:35.232Z,100414.22
2023-08-14T21:20:02.709Z,100408.72
2023-08-14T21:22:29.647Z,100416.34
2023-08-14T21:24:56.677Z,100416.78
2023-08-14T21:27:23.624Z,100418.28
2023-08-14T21:29:50.797Z,100418.47
2023-08-14T21:32:17.707Z,100420.75
2023-08-14T21:34:44.589Z,100416.66
2023-08-14T21:37:11.506Z,100420.81
2023-08-14T21:39:38.380Z,100418.13
2023-08-14T21:42:05.655Z,100418.72
2023-08-14T21:44:32.536Z,100420.81
2023-08-14T21:46:59.451Z,100422.25
2023-08-14T21:49:26.399Z,100419.19
2023-08-14T21:51:56.600Z,100434.63
2023-08-14T21:54:23.474Z,100424.34
2023-08-14T21:56:50.312Z,100424.16
2023-08-14T21:59:17.228Z,100425.22
2023-08-14T22:01:45.427Z,100427.66
2023-08-14T22:04:13.171Z,100426.25
2023-08-14T22:06:40.082Z,100426.47
2023-08-14T22:09:07.417Z,100425.03
2023-08-14T22:11:34.954Z,100430.38
2023-08-14T22:14:01.983Z,100424.22
2023-08-14T22:16:28.899Z,100431.84
2023-08-14T22:18:55.992Z,100438.03
2023-08-14T22:21:22.946Z,100445.88
2023-08-14T22:23:49.815Z,100436.03
2023-08-14T22:26:17.438Z,100445.28
2023-08-14T22:28:44.309Z,100444.50
2023-08-14T22:31:14.854Z,100443.88
2023-08-14T22:33:44.913Z,100447.19
2023-08-14T22:36:12.053Z,100451.50
2023-08-14T22:38:39.346Z,100446.38
2023-08-14T22:41:06.285Z,100443.31
2023-08-14T22:43:33.167Z,100445.16
2023-08-14T22:46:00.177Z,100442.69
2023-08-14T22:48:27.266Z,100441.25
2023-08-14T22:50:54.118Z,100438.78
2023-08-14T22:53:22.718Z,100440.66
2023-08-14T22:55:49.888Z,100439.22
2023-08-14T22:58:17.181Z,100445.41
2023-08-14T23:00:44.085Z,100439.44
2023-08-14T23:03:11.021Z,100430.38
2023-08-14T23:05:41.587Z,100434.69
2023-08-14T23:08:08.452Z,100437.56
2023-08-14T23:10:35.625Z,100435.72
2023-08-14T23:13:03.304Z,100421.53
2023-08-14T23:15:30.249Z,100427.91
2023-08-14T23:17:58.256Z,100435.09
2023-08-14T23:20:25.308Z,100422.81
2023-08-14T23:22:52.158Z,100424.88
2023-08-14T23:25:19.055Z,100431.22
2023-08-14T23:27:46.942Z,100428.97
2023-08-14T23:30:13.883Z,100432.91
2023-08-14T23:32:40.880Z,100434.75
2023-08-14T23:35:08.905Z,100435.16
2023-08-14T23:37:36.077Z,100440.09
2023-08-14T23:40:04.304Z,100435.97
2023-08-14T23:42:31.239Z,100422.63
2023-08-14T23:44:58.252Z,100424.09
2023-08-14T23:47:25.183Z,100424.50
2023-08-14T23:49:52.087Z,100423.28
2023-08-14T23:52:19.102Z,100412.41
2023-08-14T23:54:46.017Z,100412.22
2023-08-14T23:57:12.913Z,100413.22
2023-08-14T23:59:39.789Z,100408.09
